Time;durP1;ratioP1;P1;durP2;ratioP2;P2;SDS_P1;SDS_P2;PMS_P1;PMS_P2;Temp;Humidity;BMP_temperature;BMP_pressure;BME280_temperature;BME280_humidity;BME280_pressure;Samples;Min_cycle;Max_cycle;Signal;HPM_P1;HPM_P2
2021/12/13 00:00:30;;;;;;;4.13;2.70;;;;;;;5.38;93.01;97257.91;5077285;28;20227;-67
2021/12/13 00:03:05;;;;;;;4.23;1.80;;;;;;;5.44;92.96;97254.81;5077055;28;20597;-68
2021/12/13 00:05:35;;;;;;;3.63;1.50;;;;;;;5.09;93.71;97251.53;5077469;28;20203;-68
2021/12/13 00:08:06;;;;;;;2.83;1.67;;;;;;;5.28;93.06;97249.09;5077413;28;20204;-67
2021/12/13 00:10:36;;;;;;;6.80;2.37;;;;;;;4.92;94.67;97254.59;5075002;28;20210;-67
2021/12/13 00:13:11;;;;;;;1.90;1.60;;;;;;;4.81;95.11;97252.94;5076271;28;20755;-67
2021/12/13 00:15:46;;;;;;;3.03;1.93;;;;;;;5.11;93.96;97260.06;5077584;28;20214;-68
2021/12/13 00:18:18;;;;;;;2.57;2.13;;;;;;;5.01;94.27;97253.88;5077332;28;20199;-68
2021/12/13 00:20:51;;;;;;;2.67;1.70;;;;;;;5.16;94.07;97252.69;5076964;28;20219;-66
2021/12/13 00:23:35;;;;;;;2.47;1.93;;;;;;;5.33;93.34;97254.81;5076535;28;20213;-68
2021/12/13 00:26:05;;;;;;;1.80;1.10;;;;;;;5.31;93.31;97251.50;5077576;28;20210;-66
2021/12/13 00:28:36;;;;;;;4.00;2.10;;;;;;;4.98;94.45;97254.13;5077827;28;20236;-68
2021/12/13 00:31:15;;;;;;;3.20;1.43;;;;;;;5.36;93.95;97254.59;5077142;28;20204;-68
2021/12/13 00:33:53;;;;;;;2.27;1.87;;;;;;;5.05;95.16;97263.16;5076193;28;20218;-67
2021/12/13 00:36:28;;;;;;;4.03;2.70;;;;;;;4.93;94.91;97251.03;5077248;28;20204;-69
2021/12/13 00:39:00;;;;;;;2.33;2.13;;;;;;;5.19;94.10;97252.44;5076849;28;20214;-69
2021/12/13 00:41:30;;;;;;;2.73;1.53;;;;;;;4.98;94.56;97259.34;5077418;28;20228;-68
2021/12/13 00:44:03;;;;;;;2.00;1.67;;;;;;;5.04;94.45;97258.03;5077693;28;20200;-69
2021/12/13 00:46:32;;;;;;;2.80;1.30;;;;;;;5.22;93.59;97261.81;5076531;28;20206;-66
2021/12/13 00:49:01;;;;;;;1.90;1.30;;;;;;;4.98;94.75;97259.34;5076298;28;21072;-66
2021/12/13 00:51:30;;;;;;;4.67;1.83;;;;;;;4.82;95.53;97267.66;5077010;28;20231;-67
2021/12/13 00:54:01;;;;;;;1.30;1.10;;;;;;;4.64;96.03;97253.41;5076504;28;20627;-68
2021/12/13 00:56:57;;;;;;;2.43;1.47;;;;;;;5.12;94.79;97261.72;5076668;28;20207;-67
2021/12/13 00:59:27;;;;;;;3.70;2.10;;;;;;;4.98;95.24;97267.19;5077191;28;20264;-68
2021/12/13 01:02:00;;;;;;;1.27;1.17;;;;;;;5.01;94.76;97268.72;5076737;28;20234;-68
2021/12/13 01:04:47;;;;;;;2.40;1.70;;;;;;;5.30;93.67;97268.13;5075805;28;20211;-69
2021/12/13 01:08:04;;;;;;;3.67;1.67;;;;;;;5.43;93.59;97265.38;5076529;28;20214;-69
2021/12/13 01:11:09;;;;;;;3.87;2.40;;;;;;;5.03;94.43;97267.66;5072943;28;20204;-69
2021/12/13 01:13:44;;;;;;;5.37;2.40;;;;;;;4.91;95.48;97268.63;5075774;28;20209;-69
2021/12/13 01:16:21;;;;;;;3.23;2.27;;;;;;;4.94;95.22;97275.38;5076818;28;20203;-69
2021/12/13 01:19:02;;;;;;;4.63;1.53;;;;;;;5.01;95.27;97277.38;5076163;28;20203;-69
2021/12/13 01:21:41;;;;;;;1.77;1.13;;;;;;;4.74;96.55;97280.47;5075775;28;20230;-69
2021/12/13 01:24:20;;;;;;;3.23;2.30;;;;;;;4.92;96.08;97278.09;5075682;28;20207;-69
2021/12/13 01:26:50;;;;;;;4.63;2.63;;;;;;;5.03;95.32;97274.69;5076207;28;20210;-69
2021/12/13 01:29:19;;;;;;;2.93;1.67;;;;;;;5.05;95.10;97285.81;5076353;28;21115;-69
2021/12/13 01:31:49;;;;;;;2.73;1.97;;;;;;;5.05;95.63;97284.06;5076289;28;20219;-69
2021/12/13 01:34:18;;;;;;;4.50;1.63;;;;;;;4.88;96.20;97281.91;5075562;28;20755;-69
2021/12/13 01:36:53;;;;;;;2.93;2.50;;;;;;;5.11;95.47;97273.13;5076290;28;20882;-69
2021/12/13 01:39:23;;;;;;;3.47;2.20;;;;;;;4.96;96.18;97279.53;5075983;28;20746;-69
2021/12/13 01:41:52;;;;;;;2.37;1.93;;;;;;;4.91;95.47;97278.22;5075259;28;20239;-69
2021/12/13 01:44:22;;;;;;;7.87;2.77;;;;;;;5.12;95.55;97277.41;5075753;28;20207;-69
2021/12/13 01:46:51;;;;;;;3.53;1.67;;;;;;;4.91;95.75;97279.06;5079451;28;20203;-69
2021/12/13 01:49:20;;;;;;;4.77;2.50;;;;;;;5.19;95.34;97282.97;5079629;28;20199;-69
2021/12/13 01:51:47;;;;;;;1.90;1.53;;;;;;;5.09;94.73;97279.41;5079371;28;20280;-69
2021/12/13 01:54:19;;;;;;;5.60;1.87;;;;;;;5.46;94.50;97281.66;5079627;28;20211;-69
2021/12/13 01:56:56;;;;;;;3.20;2.40;;;;;;;5.26;94.95;97269.31;5079786;28;21063;-69
2021/12/13 01:59:50;;;;;;;3.73;2.30;;;;;;;4.80;96.56;97278.22;5078147;28;20219;-69
2021/12/13 02:02:26;;;;;;;2.67;1.97;;;;;;;5.05;96.54;97281.44;5080039;28;20223;-69
2021/12/13 02:05:04;;;;;;;6.10;2.93;;;;;;;5.47;94.23;97278.06;5079752;28;20207;-69
2021/12/13 02:07:38;;;;;;;3.47;2.50;;;;;;;5.00;96.11;97278.34;5079369;28;20567;-69
2021/12/13 02:10:07;;;;;;;1.97;1.57;;;;;;;4.63;97.89;97283.06;5079065;28;20200;-69
2021/12/13 02:12:36;;;;;;;3.03;2.27;;;;;;;4.97;96.76;97288.19;5076134;28;20591;-69
2021/12/13 02:17:53;;;;;;;4.67;2.13;;;;;;;5.15;95.28;97285.00;5079059;28;20218;-69
2021/12/13 02:20:25;;;;;;;3.87;3.10;;;;;;;5.21;95.78;97281.91;5079420;28;20208;-69
2021/12/13 02:22:56;;;;;;;3.97;2.40;;;;;;;5.32;95.38;97283.69;5078163;28;21024;-69
2021/12/13 02:25:26;;;;;;;3.73;1.40;;;;;;;5.06;96.55;97290.09;5079305;28;20570;-68
2021/12/13 02:27:58;;;;;;;5.23;2.00;;;;;;;5.23;95.48;97285.25;5078934;28;20207;-68
2021/12/13 02:30:31;;;;;;;5.07;2.27;;;;;;;5.00;96.98;97288.81;5078435;28;20227;-69
2021/12/13 02:32:59;;;;;;;2.13;1.80;;;;;;;5.06;96.05;97290.09;5078011;28;20219;-68
2021/12/13 02:35:29;;;;;;;7.83;2.40;;;;;;;5.34;95.13;97277.38;5079001;28;20672;-68
2021/12/13 02:37:59;;;;;;;4.23;2.60;;;;;;;5.48;94.46;97279.75;5078393;28;20208;-68
2021/12/13 02:40:26;;;;;;;5.07;2.37;;;;;;;5.13;94.90;97279.06;5078549;28;20207;-69
2021/12/13 02:42:53;;;;;;;4.90;2.10;;;;;;;5.28;94.77;97271.81;5077704;28;20228;-70
2021/12/13 02:45:25;;;;;;;3.53;2.43;;;;;;;5.07;97.29;97289.16;5078897;28;20211;-69
2021/12/13 02:47:58;;;;;;;2.40;1.57;;;;;;;5.14;96.98;97293.81;5078515;28;20226;-68
2021/12/13 02:50:33;;;;;;;3.73;1.80;;;;;;;5.30;96.13;97283.81;5078621;28;20222;-68
2021/12/13 02:53:01;;;;;;;8.00;2.53;;;;;;;5.37;95.48;97294.59;5077683;28;20227;-69
2021/12/13 02:55:30;;;;;;;5.03;2.27;;;;;;;5.27;95.62;97291.03;5078365;28;20204;-69
2021/12/13 02:58:01;;;;;;;22.73;3.07;;;;;;;5.16;96.78;97297.09;5078552;28;20204;-68
2021/12/13 03:00:31;;;;;;;2.73;2.17;;;;;;;5.28;96.18;97290.91;5078073;28;20206;-68
2021/12/13 03:03:00;;;;;;;1.83;1.63;;;;;;;5.25;95.88;97293.78;5077689;28;20538;-69
2021/12/13 03:05:30;;;;;;;5.83;3.17;;;;;;;5.25;95.97;97300.81;5078409;28;20675;-68
2021/12/13 03:08:04;;;;;;;4.83;2.20;;;;;;;5.33;95.62;97283.56;5078480;28;20214;-69
2021/12/13 03:10:34;;;;;;;5.07;2.27;;;;;;;5.15;96.05;97287.59;5074175;28;20700;-70
2021/12/13 03:13:02;;;;;;;5.23;3.30;;;;;;;5.14;95.57;97288.56;5077026;28;20231;-69
2021/12/13 03:15:31;;;;;;;3.33;1.87;;;;;;;5.24;95.78;97291.28;5078717;28;20683;-69
2021/12/13 03:18:03;;;;;;;5.67;2.23;;;;;;;5.41;95.42;97289.03;5077963;28;20253;-71
2021/12/13 03:20:56;;;;;;;3.37;1.80;;;;;;;5.55;95.01;97286.16;5077521;28;20203;-69
2021/12/13 03:23:36;;;;;;;7.37;3.47;;;;;;;5.50;95.10;97283.91;5077995;28;20207;-68
2021/12/13 03:26:27;;;;;;;6.40;2.47;;;;;;;5.65;94.12;97287.94;5078261;28;20286;-68
2021/12/13 03:29:15;;;;;;;10.43;3.30;;;;;;;5.44;94.95;97289.59;5073966;28;20208;-71
2021/12/13 03:31:47;;;;;;;5.47;3.97;;;;;;;5.17;95.65;97288.31;5077898;28;20227;-69
2021/12/13 03:34:17;;;;;;;4.47;2.60;;;;;;;5.34;96.00;97287.84;5076657;28;20204;-68
2021/12/13 03:36:56;;;;;;;4.53;2.63;;;;;;;5.45;95.60;97285.22;5074164;28;20242;-68
2021/12/13 03:39:30;;;;;;;4.13;2.33;;;;;;;5.40;95.70;97292.59;5077441;28;20234;-70
2021/12/13 03:42:02;;;;;;;8.23;2.70;;;;;;;5.37;96.07;97292.81;5077446;28;20230;-69
2021/12/13 03:44:32;;;;;;;2.73;2.20;;;;;;;5.29;96.66;97289.97;5076944;28;20208;-69
2021/12/13 03:47:08;;;;;;;4.83;2.93;;;;;;;5.40;95.65;97287.38;5077443;28;20875;-68
2021/12/13 03:49:41;;;;;;;5.50;3.13;;;;;;;5.48;95.77;97282.38;5077113;28;20203;-69
2021/12/13 03:52:10;;;;;;;5.13;2.10;;;;;;;5.19;96.99;97283.78;5076756;28;20725;-69
2021/12/13 03:54:41;;;;;;;3.07;2.00;;;;;;;5.30;96.57;97280.38;5077399;28;20674;-68
2021/12/13 03:57:09;;;;;;;4.97;2.53;;;;;;;5.22;96.73;97286.19;5077215;28;20217;-69
2021/12/13 03:59:40;;;;;;;8.43;3.00;;;;;;;5.02;97.34;97292.13;5077381;28;20214;-69
2021/12/13 04:02:10;;;;;;;8.50;3.87;;;;;;;5.23;97.14;97289.63;5077730;28;20231;-68
2021/12/13 04:04:41;;;;;;;2.83;2.57;;;;;;;5.34;96.63;97287.84;5076973;28;20206;-69
2021/12/13 04:07:12;;;;;;;3.63;2.47;;;;;;;5.24;96.34;97286.06;5077393;28;20206;-69
2021/12/13 04:09:42;;;;;;;7.50;4.10;;;;;;;5.38;96.57;97286.66;5077819;28;20211;-68
2021/12/13 04:12:09;;;;;;;6.77;4.63;;;;;;;5.09;96.63;97293.31;5074071;28;20231;-68
2021/12/13 04:14:41;;;;;;;10.73;3.83;;;;;;;5.32;97.07;97284.53;5077755;28;20218;-68
2021/12/13 04:17:22;;;;;;;4.33;2.33;;;;;;;5.11;97.54;97295.81;5077944;28;20234;-69
2021/12/13 04:19:54;;;;;;;8.00;3.50;;;;;;;5.39;96.88;97280.47;5076662;28;20752;-69
2021/12/13 04:22:24;;;;;;;7.30;3.87;;;;;;;5.22;97.04;97283.56;5075909;28;20230;-69
2021/12/13 04:24:57;;;;;;;9.17;2.83;;;;;;;5.32;96.62;97287.16;5077042;28;21104;-69
2021/12/13 04:27:28;;;;;;;8.07;2.77;;;;;;;5.30;96.60;97281.19;5076713;28;20210;-69
2021/12/13 04:29:57;;;;;;;3.37;2.70;;;;;;;5.27;96.77;97271.00;5077017;28;20207;-69
2021/12/13 04:32:26;;;;;;;2.83;2.23;;;;;;;5.19;97.83;97282.97;5076482;28;20235;-69
2021/12/13 04:34:57;;;;;;;9.50;3.43;;;;;;;5.34;96.83;97279.19;5076828;28;20222;-69
2021/12/13 04:37:27;;;;;;;5.27;3.03;;;;;;;5.27;97.33;97281.44;5076904;28;20223;-69
2021/12/13 04:39:58;;;;;;;8.27;4.27;;;;;;;5.31;97.65;97279.41;5076921;28;20207;-69
2021/12/13 04:42:27;;;;;;;5.43;2.80;;;;;;;5.28;97.25;97290.91;5076222;28;20228;-69
2021/12/13 04:45:00;;;;;;;6.53;3.00;;;;;;;5.48;96.46;97280.56;5076565;28;20204;-69
2021/12/13 04:47:32;;;;;;;6.30;3.37;;;;;;;5.39;96.94;97290.94;5076801;28;20203;-69
2021/12/13 04:50:07;;;;;;;12.27;3.50;;;;;;;5.17;98.75;97290.13;5076578;28;20204;-69
2021/12/13 04:52:34;;;;;;;8.47;3.97;;;;;;;5.16;97.78;97299.72;5076070;28;20219;-69
2021/12/13 04:55:09;;;;;;;4.00;2.77;;;;;;;5.39;96.66;97297.94;5076622;28;20204;-69
2021/12/13 04:57:36;;;;;;;2.97;1.80;;;;;;;5.07;96.77;97300.44;5076442;28;20199;-69
2021/12/13 05:00:09;;;;;;;7.27;3.80;;;;;;;5.51;96.84;97289.94;5076515;28;20637;-69
2021/12/13 05:02:35;;;;;;;6.00;2.23;;;;;;;5.41;95.60;97289.03;5072860;28;20234;-69
2021/12/13 05:05:05;;;;;;;8.27;3.50;;;;;;;5.67;95.71;97293.03;5076604;28;20204;-69
2021/12/13 05:07:32;;;;;;;4.07;2.57;;;;;;;5.25;96.54;97300.81;5076372;28;20203;-69
2021/12/13 05:10:00;;;;;;;10.37;4.77;;;;;;;5.52;95.95;97291.63;5076279;28;20207;-69
2021/12/13 05:12:28;;;;;;;6.50;3.73;;;;;;;5.53;96.73;97304.56;5072640;28;20230;-69
2021/12/13 05:14:59;;;;;;;7.33;3.23;;;;;;;5.68;95.13;97297.31;5076404;28;20289;-69
2021/12/13 05:17:28;;;;;;;12.87;3.87;;;;;;;5.57;95.15;97305.16;5076728;28;20224;-69
2021/12/13 05:19:59;;;;;;;6.53;3.90;;;;;;;5.66;95.29;97299.22;5078156;28;20288;-69
2021/12/13 05:22:26;;;;;;;10.00;5.30;;;;;;;5.32;95.53;97304.59;5079631;28;20224;-69
2021/12/13 05:24:56;;;;;;;15.37;5.20;;;;;;;5.54;95.91;97300.19;5080113;28;20212;-69
2021/12/13 05:27:29;;;;;;;7.43;4.03;;;;;;;5.84;94.48;97310.84;5081237;28;20218;-69
2021/12/13 05:30:08;;;;;;;8.57;4.40;;;;;;;5.92;94.45;97313.69;5080326;28;20203;-69
2021/12/13 05:32:40;;;;;;;7.00;4.10;;;;;;;5.90;94.25;97318.22;5079248;28;20223;-69
2021/12/13 05:35:16;;;;;;;8.87;5.00;;;;;;;5.83;94.14;97323.09;5080695;28;20309;-69
2021/12/13 05:37:44;;;;;;;11.03;4.63;;;;;;;5.73;94.38;97322.13;5079995;28;20242;-69
2021/12/13 05:40:13;;;;;;;9.03;3.93;;;;;;;5.64;95.21;97319.44;5079891;28;20203;-69
2021/12/13 05:42:44;;;;;;;8.40;3.17;;;;;;;5.62;95.34;97323.94;5079539;28;20244;-69
2021/12/13 05:45:16;;;;;;;8.97;3.10;;;;;;;5.68;95.25;97326.91;5080298;28;20204;-69
2021/12/13 05:47:56;;;;;;;10.57;4.93;;;;;;;5.85;94.27;97321.19;5079862;28;20212;-69
2021/12/13 05:50:30;;;;;;;17.00;4.30;;;;;;;5.66;95.06;97325.34;5080257;28;20216;-69
2021/12/13 05:53:03;;;;;;;11.50;5.63;;;;;;;5.51;95.96;97332.63;5078906;28;20812;-69
2021/12/13 05:55:30;;;;;;;13.40;6.33;;;;;;;5.23;96.38;97337.50;5079906;28;20219;-69
2021/12/13 05:57:58;;;;;;;11.67;5.93;;;;;;;5.64;95.01;97329.88;5079565;28;20203;-69
2021/12/13 06:00:31;;;;;;;9.40;4.93;;;;;;;5.65;95.48;97328.91;5080013;28;20210;-69
2021/12/13 06:03:06;;;;;;;8.07;5.10;;;;;;;5.84;94.55;97329.16;5078656;28;20223;-69
2021/12/13 06:05:36;;;;;;;14.10;6.20;;;;;;;5.81;94.87;97337.25;5079520;28;20222;-69
2021/12/13 06:08:09;;;;;;;12.17;3.97;;;;;;;5.74;95.43;97338.66;5079371;28;20212;-69
2021/12/13 06:10:42;;;;;;;8.00;4.10;;;;;;;5.86;94.34;97335.13;5075862;28;20204;-69
2021/12/13 06:13:14;;;;;;;10.80;4.67;;;;;;;5.83;94.18;97343.19;5083164;28;20227;-69
2021/12/13 06:15:43;;;;;;;6.33;3.77;;;;;;;5.73;94.16;97340.44;5079591;28;20204;-69
2021/12/13 06:18:20;;;;;;;5.07;3.23;;;;;;;5.93;93.90;97342.34;5079102;28;20216;-69
2021/12/13 06:20:54;;;;;;;10.93;6.83;;;;;;;6.07;93.88;97340.28;5078698;28;20214;-69
2021/12/13 06:23:23;;;;;;;7.77;4.70;;;;;;;5.98;93.46;97347.22;5078373;28;20254;-69
2021/12/13 06:25:58;;;;;;;14.23;5.90;;;;;;;5.76;94.50;97347.25;5079222;28;20219;-69
2021/12/13 06:28:28;;;;;;;12.40;3.23;;;;;;;5.41;96.20;97351.75;5079005;28;20207;-69
2021/12/13 06:30:59;;;;;;;17.87;8.10;;;;;;;5.62;96.16;97352.69;5078675;28;20204;-69
2021/12/13 06:33:27;;;;;;;7.73;5.20;;;;;;;5.75;94.90;97356.00;5078003;28;20597;-69
2021/12/13 06:35:55;;;;;;;10.97;4.40;;;;;;;5.94;94.26;97353.63;5078963;28;20507;-69
2021/12/13 06:38:53;;;;;;;20.57;5.67;;;;;;;6.20;93.05;97359.28;5078916;28;20212;-69
2021/12/13 06:41:32;;;;;;;14.83;6.27;;;;;;;6.05;93.64;97360.50;5078577;28;20224;-69
2021/12/13 06:44:02;;;;;;;18.03;7.67;;;;;;;5.99;93.95;97364.56;5077930;28;20297;-69
2021/12/13 06:46:40;;;;;;;32.47;9.70;;;;;;;6.11;93.35;97370.47;5079572;28;20215;-69
2021/12/13 06:49:12;;;;;;;39.87;14.20;;;;;;;6.05;93.16;97368.34;5078872;28;20208;-70
2021/12/13 06:51:46;;;;;;;56.13;16.03;;;;;;;5.96;93.79;97370.03;5078508;28;20224;-69
2021/12/13 06:54:18;;;;;;;36.77;13.63;;;;;;;5.97;94.75;97376.94;5080317;28;20195;-69
2021/12/13 06:56:51;;;;;;;44.30;11.23;;;;;;;5.86;93.90;97374.34;5080099;28;20203;-69
2021/12/13 06:59:20;;;;;;;14.00;5.63;;;;;;;5.81;94.42;97379.09;5079448;28;20207;-69
2021/12/13 07:01:59;;;;;;;12.10;4.47;;;;;;;5.99;94.54;97377.66;5079599;28;20955;-70
2021/12/13 07:04:26;;;;;;;10.73;5.13;;;;;;;5.82;93.95;97380.78;5078496;28;20207;-71
2021/12/13 07:06:52;;;;;;;39.40;10.47;;;;;;;5.79;93.41;97378.38;5079281;28;20211;-70
2021/12/13 07:09:22;;;;;;;16.07;7.70;;;;;;;5.99;94.05;97377.66;5079276;28;20219;-70
2021/12/13 07:11:52;;;;;;;19.53;4.97;;;;;;;6.07;93.44;97373.44;5078634;28;20215;-70
2021/12/13 07:14:23;;;;;;;34.80;10.33;;;;;;;6.11;93.05;97377.53;5084788;28;20207;-70
2021/12/13 07:16:52;;;;;;;22.17;7.00;;;;;;;6.06;93.54;97382.28;5085588;28;20196;-70
2021/12/13 07:19:22;;;;;;;13.27;6.63;;;;;;;6.08;93.08;97378.59;5079358;28;20207;-70
2021/12/13 07:21:55;;;;;;;22.17;7.50;;;;;;;6.13;93.50;97373.78;5078714;28;20699;-70
2021/12/13 07:24:32;;;;;;;16.43;4.33;;;;;;;6.18;93.14;97369.03;5079343;28;20234;-70
2021/12/13 07:27:04;;;;;;;15.47;5.77;;;;;;;6.19;93.28;97368.06;5077899;28;20199;-70
2021/12/13 07:29:39;;;;;;;14.70;7.17;;;;;;;6.32;92.67;97384.44;5078039;28;20214;-70
2021/12/13 07:32:11;;;;;;;8.40;3.20;;;;;;;6.25;93.06;97374.59;5077669;28;20231;-70
2021/12/13 07:34:57;;;;;;;9.73;5.47;;;;;;;6.46;91.88;97367.66;5077385;28;20703;-70
2021/12/13 07:37:43;;;;;;;7.27;5.10;;;;;;;6.50;92.22;97369.06;5077575;28;20212;-70
2021/12/13 07:40:31;;;;;;;6.23;3.30;;;;;;;6.54;91.60;97375.69;5077820;28;20542;-70
2021/12/13 07:43:06;;;;;;;8.80;5.17;;;;;;;6.33;92.79;97386.13;5080903;28;20235;-70
2021/12/13 07:45:44;;;;;;;5.50;4.23;;;;;;;6.48;92.30;97382.28;5077825;28;20203;-70
2021/12/13 07:48:12;;;;;;;8.17;4.93;;;;;;;6.36;92.10;97383.25;5077613;28;20249;-70
2021/12/13 07:50:43;;;;;;;11.93;4.43;;;;;;;6.35;92.80;97384.22;5077543;28;20224;-70
2021/12/13 07:53:13;;;;;;;10.47;5.37;;;;;;;6.31;92.22;97382.81;5076914;28;20223;-70
2021/12/13 07:55:46;;;;;;;21.93;6.67;;;;;;;6.42;92.67;97385.38;5077570;28;20199;-70
2021/12/13 07:58:16;;;;;;;9.47;6.47;;;;;;;6.45;91.95;97390.34;5077226;28;20200;-70
2021/12/13 08:00:46;;;;;;;15.60;6.83;;;;;;;6.34;92.03;97393.03;5077450;28;20199;-70
2021/12/13 08:03:15;;;;;;;15.60;7.60;;;;;;;6.42;92.12;97401.09;5076581;28;20231;-70
2021/12/13 08:05:44;;;;;;;8.47;4.10;;;;;;;6.16;93.41;97399.72;5077539;28;20208;-70
2021/12/13 08:08:18;;;;;;;9.53;5.17;;;;;;;6.31;93.33;97395.91;5077111;28;20990;-70
2021/12/13 08:10:45;;;;;;;4.43;2.37;;;;;;;6.15;93.07;97402.47;5075342;28;20208;-70
2021/12/13 08:13:17;;;;;;;12.33;3.97;;;;;;;6.41;93.33;97398.59;5076181;28;20192;-70
2021/12/13 08:15:48;;;;;;;6.87;2.97;;;;;;;6.37;93.32;97403.25;5077240;28;20207;-70
2021/12/13 08:18:24;;;;;;;9.77;3.10;;;;;;;6.64;92.51;97401.00;5076625;28;20799;-70
2021/12/13 08:20:54;;;;;;;6.43;3.73;;;;;;;6.36;93.32;97412.03;5076879;28;20226;-70
2021/12/13 08:23:25;;;;;;;6.97;4.60;;;;;;;6.68;92.07;97405.88;5076689;28;20223;-70
2021/12/13 08:25:54;;;;;;;5.23;3.00;;;;;;;6.56;92.16;97413.09;5076598;28;20855;-70
2021/12/13 08:28:34;;;;;;;8.53;4.07;;;;;;;6.77;92.05;97407.75;5076409;28;20265;-70
2021/12/13 08:31:05;;;;;;;5.67;3.13;;;;;;;6.86;91.41;97400.91;5077481;28;20203;-70
2021/12/13 08:33:36;;;;;;;3.37;2.47;;;;;;;6.83;91.30;97396.75;5076681;28;20218;-69
2021/12/13 08:36:07;;;;;;;10.30;3.33;;;;;;;6.89;91.82;97403.28;5076507;28;20230;-71
2021/12/13 08:38:41;;;;;;;9.57;4.37;;;;;;;6.83;91.77;97406.41;5076918;28;20214;-70
2021/12/13 08:41:21;;;;;;;6.73;3.90;;;;;;;7.09;91.01;97407.69;5077153;28;20318;-68
2021/12/13 08:43:51;;;;;;;10.10;5.43;;;;;;;6.95;90.60;97410.63;5075866;28;20223;-69
2021/12/13 08:46:31;;;;;;;8.53;4.80;;;;;;;6.83;91.18;97414.25;5076762;28;20196;-70
2021/12/13 08:48:58;;;;;;;8.07;4.43;;;;;;;7.03;91.23;97408.22;5076602;28;20206;-70
2021/12/13 08:51:29;;;;;;;8.60;4.23;;;;;;;7.36;89.86;97412.28;5076727;28;20224;-70
2021/12/13 08:54:04;;;;;;;10.80;3.63;;;;;;;7.50;89.08;97409.34;5078278;28;20219;-69
2021/12/13 08:56:34;;;;;;;9.17;4.23;;;;;;;7.29;89.38;97405.06;5081390;28;20625;-68
2021/12/13 08:59:08;;;;;;;7.37;4.40;;;;;;;7.42;88.96;97409.16;5080674;28;20203;-70
2021/12/13 09:01:43;;;;;;;11.00;4.47;;;;;;;7.44;88.96;97412.47;5080735;28;20879;-71
2021/12/13 09:04:20;;;;;;;13.07;3.33;;;;;;;6.98;90.35;97410.41;5080635;28;20219;-72
2021/12/13 09:06:55;;;;;;;8.30;3.63;;;;;;;7.03;90.73;97416.91;5081065;28;20207;-69
2021/12/13 09:09:22;;;;;;;7.40;4.13;;;;;;;7.06;89.90;97421.06;5080485;28;20210;-73
2021/12/13 09:11:56;;;;;;;9.57;4.30;;;;;;;7.31;89.67;97430.19;5077750;28;20223;-73
2021/12/13 09:14:26;;;;;;;14.53;4.63;;;;;;;7.55;89.26;97425.53;5080974;28;20195;-68
2021/12/13 09:17:11;;;;;;;6.33;3.47;;;;;;;7.38;88.88;97439.25;5081084;28;20206;-69
2021/12/13 09:19:48;;;;;;;8.13;4.30;;;;;;;7.26;89.74;97432.38;5080702;28;20204;-70
2021/12/13 09:22:20;;;;;;;6.80;3.40;;;;;;;7.39;89.70;97433.00;5079623;28;20215;-71
2021/12/13 09:24:51;;;;;;;10.60;4.63;;;;;;;7.48;88.88;97434.03;5079753;28;20590;-70
2021/12/13 09:27:28;;;;;;;14.43;5.17;;;;;;;7.51;89.07;97431.13;5080919;28;20891;-70
2021/12/13 09:30:01;;;;;;;9.93;3.93;;;;;;;7.47;89.51;97429.75;5080055;28;20310;-69
2021/12/13 09:32:37;;;;;;;13.00;4.90;;;;;;;7.51;89.04;97436.38;5079329;28;20227;-70
2021/12/13 09:35:21;;;;;;;8.47;3.77;;;;;;;7.67;88.38;97442.84;5079707;28;20195;-72
2021/12/13 09:37:48;;;;;;;8.97;3.97;;;;;;;7.35;88.26;97439.47;5080471;28;20219;-70
2021/12/13 09:40:17;;;;;;;8.93;4.40;;;;;;;7.26;89.34;97440.25;5079792;28;20195;-70
2021/12/13 09:42:47;;;;;;;14.27;3.67;;;;;;;7.37;89.24;97436.75;5079197;28;20224;-70
2021/12/13 09:45:20;;;;;;;13.70;4.43;;;;;;;7.35;89.90;97436.84;5079549;28;20226;-70
2021/12/13 09:47:49;;;;;;;9.50;4.40;;;;;;;7.48;89.06;97442.72;5079977;28;20208;-70
2021/12/13 09:50:18;;;;;;;7.17;4.03;;;;;;;7.34;88.78;97434.34;5079932;28;20687;-70
2021/12/13 09:52:51;;;;;;;7.47;4.30;;;;;;;7.24;88.75;97427.41;5078583;28;20665;-70
2021/12/13 09:55:25;;;;;;;7.03;4.53;;;;;;;7.22;89.82;97432.78;5079531;28;20227;-70
2021/12/13 09:57:57;;;;;;;8.23;4.07;;;;;;;7.42;88.82;97426.69;5079462;28;20204;-70
2021/12/13 10:00:28;;;;;;;5.80;3.27;;;;;;;7.41;88.56;97423.22;5079988;28;20200;-72
2021/12/13 10:03:05;;;;;;;7.17;3.73;;;;;;;7.68;88.21;97423.53;5078636;28;20224;-72
2021/12/13 10:05:35;;;;;;;15.10;5.40;;;;;;;7.54;89.16;97416.00;5078885;28;20210;-70
2021/12/13 10:08:05;;;;;;;5.50;3.53;;;;;;;7.43;89.43;97415.22;5080070;28;20200;-71
2021/12/13 10:10:36;;;;;;;9.27;4.07;;;;;;;7.68;88.98;97414.84;5075649;28;20667;-71
2021/12/13 10:13:06;;;;;;;13.80;4.83;;;;;;;7.57;89.14;97412.28;5079170;28;20226;-71
2021/12/13 10:15:36;;;;;;;10.20;5.37;;;;;;;7.58;89.04;97414.75;5079206;28;20208;-71
2021/12/13 10:18:09;;;;;;;9.53;4.47;;;;;;;7.67;88.98;97405.28;5078883;28;20570;-73
2021/12/13 10:20:39;;;;;;;17.43;4.33;;;;;;;7.82;88.58;97409.22;5078402;28;20698;-71
2021/12/13 10:23:13;;;;;;;7.17;3.97;;;;;;;7.90;88.19;97410.22;5078776;28;20235;-71
2021/12/13 10:25:44;;;;;;;11.67;5.60;;;;;;;7.95;88.16;97402.78;5079441;28;20200;-71
2021/12/13 10:28:14;;;;;;;9.03;4.80;;;;;;;8.01;88.94;97402.25;5078684;28;20219;-72
2021/12/13 10:30:46;;;;;;;4.53;3.00;;;;;;;8.03;88.01;97395.91;5078652;28;20211;-72
2021/12/13 10:33:16;;;;;;;6.70;3.90;;;;;;;8.07;87.65;97399.06;5077348;28;20225;-72
2021/12/13 10:35:44;;;;;;;8.67;4.67;;;;;;;7.78;88.61;97399.94;5077637;28;20204;-71
2021/12/13 10:38:13;;;;;;;10.23;3.40;;;;;;;8.22;87.02;97393.38;5077549;28;20203;-71
2021/12/13 10:40:44;;;;;;;6.30;4.20;;;;;;;7.97;87.58;97399.06;5078393;28;20203;-71
2021/12/13 10:43:14;;;;;;;6.37;3.47;;;;;;;8.13;86.97;97398.56;5077382;28;20671;-68
2021/12/13 10:45:44;;;;;;;3.93;3.00;;;;;;;8.11;86.85;97397.88;5078429;28;20200;-71
2021/12/13 10:48:16;;;;;;;5.17;3.63;;;;;;;8.18;86.47;97396.38;5079024;28;20204;-68
2021/12/13 10:50:45;;;;;;;9.37;4.20;;;;;;;7.92;87.07;97396.00;5078538;28;20214;-70
2021/12/13 10:53:16;;;;;;;14.23;5.43;;;;;;;8.01;87.75;97394.38;5077691;28;20626;-68
2021/12/13 10:55:46;;;;;;;7.90;3.97;;;;;;;8.17;87.33;97390.31;5078991;28;20200;-71
2021/12/13 10:58:15;;;;;;;8.20;4.63;;;;;;;8.40;86.89;97386.50;5078102;28;20199;-71
2021/12/13 11:00:45;;;;;;;12.87;5.37;;;;;;;7.96;87.81;97383.44;5078735;28;20208;-69
2021/12/13 11:03:18;;;;;;;8.37;4.23;;;;;;;8.03;87.97;97381.94;5077333;28;20691;-71
2021/12/13 11:05:46;;;;;;;7.70;3.57;;;;;;;7.99;87.81;97383.16;5078485;28;21564;-71
2021/12/13 11:08:16;;;;;;;8.97;4.87;;;;;;;8.46;86.83;97380.69;5078376;28;20657;-72
2021/12/13 11:10:46;;;;;;;20.77;5.43;;;;;;;8.01;88.00;97378.63;5075226;28;20982;-70
2021/12/13 11:13:14;;;;;;;8.93;4.97;;;;;;;8.16;87.29;97369.41;5077931;28;20214;-71
2021/12/13 11:15:43;;;;;;;14.97;5.37;;;;;;;8.13;87.92;97367.03;5078175;28;20200;-72
2021/12/13 11:18:13;;;;;;;18.93;4.43;;;;;;;8.56;86.71;97371.84;5076945;28;20213;-69
2021/12/13 11:20:46;;;;;;;12.77;4.93;;;;;;;8.39;87.48;97362.97;5077997;28;20230;-72
2021/12/13 11:23:19;;;;;;;13.30;4.87;;;;;;;8.23;88.74;97368.75;5077038;28;20220;-70
2021/12/13 11:25:50;;;;;;;7.77;3.47;;;;;;;7.90;89.99;97365.59;5078586;28;20203;-72
2021/12/13 11:28:18;;;;;;;8.90;5.27;;;;;;;8.21;88.34;97354.09;5078040;28;20207;-73
2021/12/13 11:30:48;;;;;;;8.60;5.23;;;;;;;7.99;89.07;97356.91;5077282;28;20203;-70
2021/12/13 11:33:48;;;;;;;6.57;4.53;;;;;;;8.52;87.05;97356.50;5076533;28;21095;-70
2021/12/13 11:37:05;;;;;;;7.97;4.30;;;;;;;8.26;87.92;97347.50;5077593;28;20204;-73
2021/12/13 11:39:59;;;;;;;6.77;3.87;;;;;;;7.92;89.67;97361.06;5051051;28;20218;-72
2021/12/13 11:43:05;;;;;;;9.03;4.27;;;;;;;8.26;87.55;97344.88;5076919;28;20231;-72
2021/12/13 11:45:47;;;;;;;3.43;3.07;;;;;;;7.76;90.25;97352.84;5077107;28;20604;-73
2021/12/13 11:48:39;;;;;;;10.53;3.83;;;;;;;7.84;89.92;97350.41;5077209;28;20299;-73
2021/12/13 11:51:33;;;;;;;9.40;4.67;;;;;;;8.15;89.89;97347.59;5077654;28;20203;-72
2021/12/13 11:54:33;;;;;;;8.87;4.33;;;;;;;8.28;89.10;97339.47;5076281;28;20203;-72
2021/12/13 11:57:49;;;;;;;7.83;4.83;;;;;;;8.51;87.64;97342.53;5077821;28;20300;-73
2021/12/13 12:00:30;;;;;;;18.57;5.37;;;;;;;8.48;87.23;97338.50;5014209;28;20305;-73
2021/12/13 12:03:45;;;;;;;9.80;5.80;;;;;;;8.89;86.73;97337.25;5013334;28;20221;-72
2021/12/13 12:06:53;;;;;;;8.20;5.43;;;;;;;8.61;87.21;97338.09;5075700;28;20211;-73
2021/12/13 12:09:47;;;;;;;13.47;6.23;;;;;;;8.38;88.38;97346.41;5056091;28;20214;-72
2021/12/13 12:12:26;;;;;;;17.60;5.43;;;;;;;8.39;88.54;97342.81;5073321;28;20223;-73